Cap Ternay — 861194 — position and weather

sailwx.info

Track history (hours):
 
Tides and Currents Weather Stations Pressure Air Temp Water Temp Dewpoint Dewpoint Depression Visibility Wind Speed Wind Dir Waves Ship Positions

Cap Ternay

Last reported at 2018-Jun-18 04:37 UTC. Time now 2018-Jul-22 14:08 UTC.
Position S 27°33' E 153°20'.
Warning: this ship's position is 34 days out of date.

; draft 1.8 m.

Type: Pleasure craft. MMSI: 503018520.

Date/timePositionNaut miles runAvg speedWind from/ knotsBaromVisibWave heightAir tempDewpointWater temp
2018-Jun-18 04:37S 27°33' E 153°20'1 7.4
2018-Jun-18 04:28S 27°34' E 153°21'3 6.9
2018-Jun-18 04:00S 27°37' E 153°19'3 5.7
2018-Jun-18 03:30S 27°39' E 153°21'3 6.0
2018-Jun-18 03:00S 27°42' E 153°22'3 6.0
2018-Jun-18 02:30S 27°45' E 153°21'3 5.3
2018-Jun-18 02:00S 27°47' E 153°23'3 5.5
2018-Jun-18 01:30S 27°46' E 153°26'1 2.8
2018-Jun-18 01:00S 27°47' E 153°25'1 2.5
2018-Jun-18 00:30S 27°48' E 153°25'3 6.7
2018-Jun-18 00:00S 27°52' E 153°24'3 6.9
2018-Jun-17 23:30S 27°55' E 153°25'3 6.5
2018-Jun-17 23:00S 27°58' E 153°25'1 0.1
2018-Jun-17 04:41S 27°57' E 153°25'0 0.0
2018-Jun-17 04:01S 27°57' E 153°25'0 0.1
2018-Jun-17 03:58S 27°57' E 153°25'1 1.1
2018-Jun-17 03:30S 27°56' E 153°25'4 7.2
2018-Jun-17 03:00S 27°53' E 153°25'4 7.0
2018-Jun-17 02:30S 27°49' E 153°25'3 6.0
2018-Jun-17 02:00S 27°46' E 153°25'1 0.0
2018-Jun-16 02:20S 27°45' E 153°26'0 0.0
2018-Jun-16 02:00S 27°45' E 153°26'2 3.1
2018-Jun-16 01:30S 27°47' E 153°25'3 5.6
2018-Jun-16 01:00S 27°46' E 153°22'3 5.3
2018-Jun-16 00:30S 27°44' E 153°21'3 6.6
2018-Jun-16 00:00S 27°40' E 153°22'2 5.0
2018-Jun-15 23:30S 27°38' E 153°23'2 3.7
2018-Jun-15 23:00S 27°38' E 153°25'0 0.0
2018-Jun-15 04:45S 27°38' E 153°25'0 0.0
2018-Jun-15 04:30S 27°38' E 153°25'0 0.0
2018-Jun-15 03:59S 27°38' E 153°25'0 0.0
2018-Jun-15 02:20S 27°38' E 153°25'0 0.2
2018-Jun-15 02:00S 27°38' E 153°25'3 6.1
2018-Jun-15 01:30S 27°35' E 153°23'3 6.8
2018-Jun-15 01:00S 27°33' E 153°21'  
2018-Jun-11 01:53S 27°28' E 153°16'3 7.3
2018-Jun-11 01:30S 27°30' E 153°18'4 7.0
2018-Jun-11 00:59S 27°31' E 153°21'3 6.4
2018-Jun-11 00:30S 27°33' E 153°24'3 5.7
2018-Jun-11 00:00S 27°36' E 153°24'2 3.8
2018-Jun-10 23:29S 27°38' E 153°25'0 0.0
2018-Jun-10 04:00S 27°38' E 153°25'1 1.6
2018-Jun-10 03:24S 27°37' E 153°24'  
Track history (hours):
 
Tides and Currents Weather Stations Pressure Air Temp Water Temp Dewpoint Dewpoint Depression Visibility Wind Speed Wind Dir Waves Ship Positions

Cap Ternay

Last reported at 2018-Jun-18 04:37 UTC. Time now 2018-Jul-22 14:08 UTC.
Position S 27°33' E 153°20'.
Warning: this ship's position is 34 days out of date.

; draft 1.8 m.

Type: Pleasure craft. MMSI: 503018520.

Date/timePositionNaut miles runAvg speedWind from/ knotsBaromVisibWave heightAir tempDewpointWater temp
2018-Jun-18 04:37S 27°33' E 153°20'1 7.4
2018-Jun-18 04:28S 27°34' E 153°21'3 6.9
2018-Jun-18 04:00S 27°37' E 153°19'3 5.7
2018-Jun-18 03:30S 27°39' E 153°21'3 6.0
2018-Jun-18 03:00S 27°42' E 153°22'3 6.0
2018-Jun-18 02:30S 27°45' E 153°21'3 5.3
2018-Jun-18 02:00S 27°47' E 153°23'3 5.5
2018-Jun-18 01:30S 27°46' E 153°26'1 2.8
2018-Jun-18 01:00S 27°47' E 153°25'1 2.5
2018-Jun-18 00:30S 27°48' E 153°25'3 6.7
2018-Jun-18 00:00S 27°52' E 153°24'3 6.9
2018-Jun-17 23:30S 27°55' E 153°25'3 6.5
2018-Jun-17 23:00S 27°58' E 153°25'1 0.1
2018-Jun-17 04:41S 27°57' E 153°25'0 0.0
2018-Jun-17 04:01S 27°57' E 153°25'0 0.1
2018-Jun-17 03:58S 27°57' E 153°25'1 1.1
2018-Jun-17 03:30S 27°56' E 153°25'4 7.2
2018-Jun-17 03:00S 27°53' E 153°25'4 7.0
2018-Jun-17 02:30S 27°49' E 153°25'3 6.0
2018-Jun-17 02:00S 27°46' E 153°25'1 0.0
2018-Jun-16 02:20S 27°45' E 153°26'0 0.0
2018-Jun-16 02:00S 27°45' E 153°26'2 3.1
2018-Jun-16 01:30S 27°47' E 153°25'3 5.6
2018-Jun-16 01:00S 27°46' E 153°22'3 5.3
2018-Jun-16 00:30S 27°44' E 153°21'3 6.6
2018-Jun-16 00:00S 27°40' E 153°22'2 5.0
2018-Jun-15 23:30S 27°38' E 153°23'2 3.7
2018-Jun-15 23:00S 27°38' E 153°25'0 0.0
2018-Jun-15 04:45S 27°38' E 153°25'0 0.0
2018-Jun-15 04:30S 27°38' E 153°25'0 0.0
2018-Jun-15 03:59S 27°38' E 153°25'0 0.0
2018-Jun-15 02:20S 27°38' E 153°25'0 0.2
2018-Jun-15 02:00S 27°38' E 153°25'3 6.1
2018-Jun-15 01:30S 27°35' E 153°23'3 6.8
2018-Jun-15 01:00S 27°33' E 153°21'  
2018-Jun-11 01:53S 27°28' E 153°16'3 7.3
2018-Jun-11 01:30S 27°30' E 153°18'4 7.0
2018-Jun-11 00:59S 27°31' E 153°21'3 6.4
2018-Jun-11 00:30S 27°33' E 153°24'3 5.7
2018-Jun-11 00:00S 27°36' E 153°24'2 3.8
2018-Jun-10 23:29S 27°38' E 153°25'0 0.0
2018-Jun-10 04:00S 27°38' E 153°25'1 1.6
2018-Jun-10 03:24S 27°37' E 153°24'  

Dump ship's entire track history